1962 Tropical Cyclone NOT_NAMED (1962045S19118)


IBTrACS version v04r00. Visit IBTrACS website for data access.
Please direct all questions to the IBTrACS Q and A forum

Storm track - Intensity - Wind Radii - Intensity Data - Source Data - All data

Summary Information

Storm ID 1962045S19118
Start Feb 14 06Z
Max Intensity 40 kt (Feb 15 18Z), 993 mb (Feb 20 21Z)
End Feb 22 23Z
ATCF IDs ,SH141962
Track status Best track data.

Storm track plot

Map of storm track

Intensity plots

Map of storm track

Radial wind information

No radial wind information for this storm


Position and Intensity Table

BASIN ISO_TIME_________ NATURE LAT LON WMO PRES BOM PRES NEUMANN WIND NEUMANN PRES
degrees north degrees east mb mb kts mb
SI 1962-02-14 06:00:00 TS -19.10 118.30 35 998
SI 07:00:00 TS -19.12 118.27 999 999 35 997
SI 09:00:00 TS -19.15 117.96 999 35 997
SI 10:00:00 TS -19.17 117.80 999 999 35 997
SI 11:00:00 TS -19.18 117.67 998 35 997
SI 12:00:00 TS -19.21 117.46 998 35 997
SI 15:00:00 TS -19.31 116.78 998 35 997
SI 16:00:00 TS -19.35 116.55 998 998 35 997
SI 18:00:00 TS -19.44 116.12 35 997
SI 21:00:00 TS -19.60 115.42 35 997
SI 23:00:00 TS -19.70 114.99 35 997
SI 1962-02-15 00:00:00 TS -19.75 114.79 35 997
SI 03:00:00 TS -19.88 114.30 35 996
SI 06:00:00 TS -19.98 113.93 35 996
SI 07:00:00 TS -20.00 113.82 997 997 35 996
SI 09:00:00 TS -20.03 113.64 35 996
SI 11:00:00 TS -20.05 113.50 35 996
SI 12:00:00 TS -20.04 113.51 35 996
SI 15:00:00 TS -20.05 113.40 37 995
SI 18:00:00 TS -20.06 113.31 40 995
SI 21:00:00 TS -20.06 113.23 40 995
SI 23:00:00 TS -20.06 113.15 40 995
SI 1962-02-16 00:00:00 TS -20.06 113.11 40 995
SI 03:00:00 TS -20.03 112.97 40 995
SI 06:00:00 TS -19.99 112.81 40 995
SI 07:00:00 TS -19.98 112.76 995 995 40 995
SI 09:00:00 TS -19.94 112.64 40 995
SI 11:00:00 TS -19.90 112.51 40 995
SI 12:00:00 TS -19.85 113.26 40 995
SI 15:00:00 TS -19.83 113.41 40 995
SI 18:00:00 TS -19.84 113.30 40 995
SI 21:00:00 TS -19.85 113.04 40 995
SI 22:00:00 TS -19.84 112.89 995 995 40 995
SI 23:00:00 TS -19.82 112.76 995 40 995
SI 1962-02-17 00:00:00 TS -19.81 112.64 995 40 995
SI 03:00:00 TS -19.75 112.35 995 40 995
SI 06:00:00 TS -19.68 112.14 995 40 995
SI 07:00:00 TS -19.65 112.08 995 995 40 995
SI 09:00:00 TS -19.60 111.97 40 995
SI 11:00:00 TS -19.53 111.87 40 995
SI 12:00:00 TS -19.50 111.82 40 995
SI 15:00:00 TS -19.42 111.68 40 995
SI 18:00:00 TS -19.33 111.54 40 995
SI 21:00:00 TS -19.23 111.38 40 995
SI 23:00:00 TS -19.16 111.25 40 995
SI 1962-02-18 00:00:00 TS -19.12 111.19 40 995
SI 03:00:00 TS -19.00 110.97 40 995
SI 06:00:00 TS -18.88 110.71 40 995
SI 07:00:00 TS -18.84 110.61 995 995 40 995
SI 09:00:00 TS -18.76 110.41 995 40 995
SI 11:00:00 TS -18.70 110.19 995 40 995
SI 12:00:00 TS -18.67 110.07 995 40 995
SI 15:00:00 TS -18.58 109.70 995 40 995
SI 18:00:00 TS -18.41 109.02 995 40 995
SI 19:00:00 TS -18.26 108.48 995 995 40 995
SI 21:00:00 TS -18.04 107.59 995 40 995
SI 23:00:00 TS -17.75 106.37 995 40 995
SI 1962-02-19 00:00:00 TS -17.75 106.22 995 40 995
SI 03:00:00 TS -17.82 105.88 995 40 995
SI 05:00:00 TS -17.92 105.72 995 995 40 995
SI 06:00:00 TS -17.99 105.66 995 40 995
SI 07:00:00 TS -18.05 105.60 995 995 39 995
SI 09:00:00 TS -18.18 105.56 37 995
SI 11:00:00 TS -18.31 105.60 35 995
SI 12:00:00 TS -18.37 105.64 35 996
SI 15:00:00 TS -18.58 105.84 35 996
SI 18:00:00 TS -18.83 106.10 35 997
SI 20:00:00 TS -19.02 106.29 997 997 35 997
SI 21:00:00 TS -19.12 106.36 997 35 997
SI 23:00:00 TS -19.33 106.51 997 35 997
SI 1962-02-20 00:00:00 TS -19.34 107.06 997 35 997
SI 03:00:00 TS -19.39 107.33 997 35 997
SI 06:00:00 TS -19.32 107.32 997 35 997
SI 07:00:00 TS -19.21 107.31 998 998 35 996
SI 09:00:00 TS -19.17 107.15 37 996
SI 11:00:00 TS -19.12 106.97 39 995
SI 12:00:00 TS -19.09 106.87 40 995
SI 15:00:00 TS -18.98 106.56 40 994
SI 18:00:00 TS -18.88 106.25 40 994
SI 21:00:00 TS -18.79 105.90 40 993
SI 23:00:00 TS -18.76 105.74 40 993
SI 1962-02-21 00:00:00 TS -18.76 105.71 40 993
SI 03:00:00 TS -18.81 105.83 40 993
SI 06:00:00 TS -18.90 106.06 40 993
SI 07:00:00 TS -18.93 106.12 993 993 40 993
SI 09:00:00 TS -19.00 106.22 40 994
SI 11:00:00 TS -19.07 106.28 40 994
SI 12:00:00 TS -19.10 106.28 40 995
SI 15:00:00 TS -19.17 106.17 37 995
SI 18:00:00 TS -19.24 105.98 35 996
SI 21:00:00 TS -19.28 105.83 35 996
SI 23:00:00 TS -19.30 105.74 35 996
SI 1962-02-22 00:00:00 TS -19.30 105.71 35 997
SI 03:00:00 TS -19.36 105.62
SI 06:00:00 TS -19.45 105.51
SI 07:00:00 TS -19.45 105.48 998 998
SI 09:00:00 TS -19.44 105.42
SI 11:00:00 TS -19.46 105.32
SI 12:00:00 TS -19.47 105.29
SI 15:00:00 TS -19.55 105.21
SI 18:00:00 TS -19.71 105.12
SI 21:00:00 NR -19.89 105.05
SI 23:00:00 NR -20.00 105.00

Source Information

Agency Information
USA bsh141962.txt
TOKYO
CMA
HKO
NEWDELHI
REUNION
BOM IDCKMSTM0S.csv:Line=3395:unnamed
NADI
WELLINGTON
DS824 s_hem.dat:840:14S
TD9636 cons_worldwide_trop_cyclone_18710101-19891231-006:Line=6147
TD9635
NEUMANN tracks.sh:Storm=36:HSK1462:BSH1462:BM308
MLC

All available IBTrACS Data

SEASON BASIN SUBBASIN ISO_TIME_________ NATURE LAT LON WMO PRES WMO AGENCY DIST2LAND LANDFALL IFLAG USA AGENCY USA ATCF_ID USA LAT USA LON USA SSHS BOM LAT BOM LON BOM PRES BOM PRES_METHOD DS824 LAT DS824 LON DS824 STAGE TD9636 LAT TD9636 LON TD9636 STAGE NEUMANN LAT NEUMANN LON NEUMANN CLASS NEUMANN WIND NEUMANN PRES STORM SPEED STORM DIR
Year degrees north degrees east mb km km degrees north degrees east 1 degrees north degrees east mb degrees north degrees east degrees north degrees east degrees north degrees east kts mb kts degrees
1962 SI WA 1962-02-14 06:00:00 TS -19.10 118.30 139 139 ____________O_ -1 -19.10 118.30 TC 35 998 2 0
1962 SI WA 07:00:00 TS -19.12 118.27 999 bom 139 134 ______O_____P_ -1 -19.10 118.70 999 -19.13 118.06 TC 35 997 7 261
1962 SI WA 09:00:00 TS -19.15 117.96 134 134 ______P_____P_ -1 -19.10 118.53 999 -19.19 117.58 TC 35 997 9 263
1962 SI WA 10:00:00 TS -19.17 117.80 999 bom 137 137 ______O_____P_ -1 -19.10 118.40 999 -19.22 117.34 TC 35 997 8 264
1962 SI WA 11:00:00 TS -19.18 117.67 140 144 ______P_____P_ -1 -19.11 118.23 998 -19.26 117.12 TC 35 997 10 263
1962 SI WA 12:00:00 TS -19.21 117.46 148 145 ______P_____O_ -1 -19.12 118.02 998 -19.30 116.90 TC 35 997 13 262
1962 SI WA 15:00:00 TS -19.31 116.78 145 145 ______P_____P_ -1 -19.17 117.26 998 -19.44 116.29 TC 35 997 13 261
1962 SI WA 16:00:00 TS -19.35 116.55 998 bom 146 135 ______O_____P_ -1 -19.20 117.00 998 -19.49 116.10 TC 35 997 13 258
1962 SI WA 18:00:00 TS -19.44 116.12 148 143 ______P_____O_ -1 -19.28 116.53 -19.60 115.70 TC 35 997 13 257
1962 SI WA 21:00:00 TS -19.60 115.42 167 167 ______P_____P_ -1 -19.43 115.84 -19.77 115.01 TC 35 997 13 256
1962 SI WA 23:00:00 TS -19.70 114.99 182 182 ______P_____P_ -1 -19.55 115.40 -19.86 114.58 TC 35 997 12 255
1962 SI WA 1962-02-15 00:00:00 TS -19.75 114.79 185 185 ______P_____O_ -1 -19.61 115.18 -19.90 114.40 TC 35 997 10 255
1962 SI WA 03:00:00 TS -19.88 114.30 210 210 ______P_____P_ -1 -19.79 114.58 -19.97 114.02 TC 35 996 8 255
1962 SI WA 06:00:00 TS -19.98 113.93 212 212 ______P_____O_ -1 -19.95 114.05 -20.00 113.80 TC 35 996 7 255
1962 SI WA 07:00:00 TS -20.00 113.82 997 bom 213 213 ______O_____P_ -1 -20.00 113.90 997 -20.01 113.73 TC 35 996 6 258
1962 SI WA 09:00:00 TS -20.03 113.64 216 207 ______P_____P_ -1 -20.06 113.65 -20.01 113.63 TC 35 996 5 261
1962 SI WA 11:00:00 TS -20.05 113.50 207 207 ______P_____P_ -1 -20.10 113.45 -20.00 113.54 TC 35 996 2 266
1962 SI WA 12:00:00 TS -20.04 113.51 218 210 ______P_____O_ -1 -20.12 113.36 -20.00 113.50 TC 35 996 1 271
1962 SI WA 15:00:00 TS -20.05 113.40 210 210 ______P_____P_ -1 -20.16 113.17 -20.00 113.35 TC 37 995 2 266
1962 SI WA 18:00:00 TS -20.06 113.31 213 213 ______P_____O_ -1 -20.17 113.03 -20.00 113.20 TC 40 995 2 267
1962 SI WA 21:00:00 TS -20.06 113.23 217 217 ______P_____P_ -1 -20.15 112.95 -20.01 113.06 TC 40 995 2 268
1962 SI WA 23:00:00 TS -20.06 113.15 221 221 ______P_____P_ -1 -20.14 112.90 -20.01 112.96 TC 40 995 2 272
1962 SI WA 1962-02-16 00:00:00 TS -20.06 113.11 221 221 ______P_____O_ -1 -20.12 112.88 -20.00 112.90 TC 40 995 3 278
1962 SI WA 03:00:00 TS -20.03 112.97 236 236 ______P_____P_ -1 -20.08 112.82 -19.97 112.71 TC 40 995 3 283
1962 SI WA 06:00:00 TS -19.99 112.81 246 246 ______P_____O_ -1 -20.02 112.74 -19.90 112.50 TC 40 995 3 287
1962 SI WA 07:00:00 TS -19.98 112.76 995 bom 246 246 ______O_____P_ -1 -20.00 112.70 995 -19.87 112.43 TC 40 995 3 287
1962 SI WA 09:00:00 TS -19.94 112.64 266 266 ______P_____P_ -1 -19.98 112.60 -19.81 112.30 TC 40 995 4 288
1962 SI WA 11:00:00 TS -19.90 112.51 272 242 ______P_____P_ -1 -19.95 112.50 -19.74 112.17 TC 40 995 12 81
1962 SI WA 12:00:00 TS -19.85 113.26 245 238 O_____P__O__O_ jtwc_sh SH141962 -19.70 116.50 -1 -19.93 112.44 -19.70 116.50 TC -19.70 112.10 TC 40 995 13 85
1962 SI WA 15:00:00 TS -19.83 113.41 242 242 P_____P__P__P_ SH141962 -19.86 115.73 -1 -19.87 112.27 -19.86 115.73 TC -19.61 111.93 TC 40 995 0 80
1962 SI WA 18:00:00 TS -19.84 113.30 245 245 O_____P__O__O_ jtwc_sh SH141962 -20.00 115.00 -1 -19.78 112.06 -20.00 115.00 TC -19.50 111.70 TC 40 995 4 267
1962 SI WA 21:00:00 TS -19.85 113.04 256 256 P_____P__P__P_ SH141962 -20.11 114.37 -1 -19.65 111.80 -20.11 114.37 TC -19.31 111.31 TC 40 995 6 270
1962 SI WA 22:00:00 TS -19.84 112.89 995 bom 261 261 P_____O__P__P_ SH141962 -20.15 114.19 -1 -19.60 111.70 995 -20.15 114.19 TC -19.24 111.16 TC 40 995 8 276
1962 SI WA 23:00:00 TS -19.82 112.76 265 270 P_____P__PO_P_ SH141962 -20.17 114.03 -1 -19.54 111.59 995 -20.17 114.03 TC -20.20 114.00 1 -19.17 111.03 TC 40 995 7 277
1962 SI WA 1962-02-17 00:00:00 TS -19.81 112.64 276 276 O_____P__OP_O_ jtwc_sh SH141962 -20.20 113.90 -1 -19.48 111.47 995 -20.20 113.90 TC -20.21 113.94 1 -19.10 110.90 TC 40 995 6 280
1962 SI WA 03:00:00 TS -19.75 112.35 287 287 P_____P__PP_P_ SH141962 -20.27 113.62 -1 -19.28 111.10 995 -20.27 113.62 TC -20.22 113.77 1 -18.93 110.63 TC 40 995 5 285
1962 SI WA 06:00:00 TS -19.68 112.14 315 315 O_____P__OP_O_ jtwc_sh SH141962 -20.30 113.50 -1 -19.07 110.72 995 -20.30 113.50 TC -20.23 113.62 1 -18.80 110.40 TC 40 995 4 291
1962 SI WA 07:00:00 TS -19.65 112.08 995 bom 315 315 P_____O__PP_P_ SH141962 -20.29 113.47 -1 -19.00 110.60 995 -20.29 113.47 TC -20.22 113.57 1 -18.76 110.31 TC 40 995 4 298
1962 SI WA 09:00:00 TS -19.60 111.97 330 330 P_____P__PP_P_ SH141962 -20.26 113.43 -1 -18.89 110.41 -20.26 113.43 TC -20.22 113.48 1 -18.69 110.14 TC 40 995 3 303
1962 SI WA 11:00:00 TS -19.53 111.87 346 346 P_____P__PO_P_ SH141962 -20.22 113.41 -1 -18.78 110.25 -20.22 113.41 TC -20.20 113.40 1 -18.63 109.98 TC 40 995 3 304
1962 SI WA 12:00:00 TS -19.50 111.82 352 352 O_____P__OP_O_ jtwc_sh SH141962 -20.20 113.40 -1 -18.73 110.18 -20.20 113.40 TC -20.19 113.37 1 -18.60 109.90 TC 40 995 3 302
1962 SI WA 15:00:00 TS -19.42 111.68 367 367 P_____P__PP_P_ SH141962 -20.16 113.32 -1 -18.60 109.98 -20.16 113.32 TC -20.13 113.28 1 -18.50 109.70 TC 40 995 3 303
1962 SI WA 18:00:00 TS -19.33 111.54 390 390 O_____P__OP_O_ jtwc_sh SH141962 -20.10 113.20 -1 -18.48 109.81 -20.10 113.20 TC -20.06 113.19 1 -18.40 109.50 TC 40 995 3 303
1962 SI WA 21:00:00 TS -19.23 111.38 405 405 P_____P__PP_P_ SH141962 -20.01 113.07 -1 -18.38 109.63 -20.01 113.07 TC -19.97 113.09 1 -18.30 109.27 TC 40 995 4 303
1962 SI WA 23:00:00 TS -19.16 111.25 412 419 P_____P__PO_P_ SH141962 -19.94 112.96 -1 -18.32 109.50 -19.94 112.96 TC -19.90 113.00 1 -18.23 109.10 TC 40 995 4 302
1962 SI WA 1962-02-18 00:00:00 TS -19.12 111.19 427 427 O_____P__OP_O_ jtwc_sh SH141962 -19.90 112.90 -1 -18.29 109.43 -19.90 112.90 TC -19.86 112.94 1 -18.20 109.00 TC 40 995 5 301
1962 SI WA 03:00:00 TS -19.00 110.97 450 450 P_____P__PP_P_ SH141962 -19.75 112.71 -1 -18.20 109.20 -19.75 112.71 TC -19.75 112.75 1 -18.10 108.68 TC 40 995 5 298
1962 SI WA 06:00:00 TS -18.88 110.71 480 480 O_____P__OP_O_ jtwc_sh SH141962 -19.60 112.50 -1 -18.13 108.91 -19.60 112.50 TC -19.62 112.53 1 -18.00 108.30 TC 40 995 6 295
1962 SI WA 07:00:00 TS -18.84 110.61 995 bom 495 495 P_____O__PP_P_ SH141962 -19.56 112.43 -1 -18.10 108.80 995 -19.56 112.43 TC -19.57 112.44 1 -17.96 108.16 TC 40 995 6 291
1962 SI WA 09:00:00 TS -18.76 110.41 510 510 P_____P__PP_P_ SH141962 -19.49 112.27 -1 -18.03 108.54 995 -19.49 112.27 TC -19.49 112.28 1 -17.88 107.87 TC 40 995 6 289
1962 SI WA 11:00:00 TS -18.70 110.19 533 533 P_____P__PO_P_ SH141962 -19.43 112.09 -1 -17.97 108.26 995 -19.43 112.09 TC -19.40 112.10 2 -17.82 107.56 TC 40 995 7 287
1962 SI WA 12:00:00 TS -18.67 110.07 541 541 O_____P__OP_O_ jtwc_sh SH141962 -19.40 112.00 -1 -17.94 108.11 995 -19.40 112.00 TC -19.36 112.02 2 -17.80 107.40 TC 40 995 7 284
1962 SI WA 15:00:00 TS -18.58 109.70 580 580 P_____P__PP_P_ SH141962 -19.30 111.71 -1 -17.87 107.65 995 -19.30 111.71 TC -19.26 111.79 2 -17.78 106.91 TC 40 995 10 284
1962 SI WA 18:00:00 TS -18.41 109.02 652 652 O_____P__OP_O_ jtwc_sh SH141962 -19.20 111.40 -1 -17.81 107.17 995 -19.20 111.40 TC -19.16 111.55 2 -17.80 106.40 TC 40 995 18 285
1962 SI WA 19:00:00 TS -18.26 108.48 995 bom 701 701 P_____O__PP_P_ SH141962 -19.18 111.32 -1 -17.80 107.00 995 -19.18 111.32 TC -19.13 111.47 2 -17.79 106.20 TC 40 995 28 286
1962 SI WA 21:00:00 TS -18.04 107.59 798 798 P_____P__PP_P_ SH141962 -19.15 111.16 -1 -17.73 106.63 995 -19.15 111.16 TC -19.07 111.30 2 -17.76 105.80 TC 40 995 31 284
1962 SI WA 23:00:00 TS -17.75 106.37 917 932 P_____P__PP_P_ SH141962 -19.14 111.03 -1 -17.67 106.25 995 -19.14 111.03 TC -19.01 111.14 2 -17.77 105.49 TC 40 995 27 282
1962 SI WA 1962-02-19 00:00:00 TS -17.75 106.22 935 935 P_____P__PP_O_ SH141962 -19.14 110.97 -1 -17.65 106.07 995 -19.14 110.97 TC -18.98 111.05 2 -17.80 105.40 TC 40 995 7 261
1962 SI WA 03:00:00 TS -17.82 105.88 962 962 P_____P__PP_P_ SH141962 -19.15 110.80 -1 -17.68 105.56 995 -19.15 110.80 TC -18.90 110.79 2 -18.01 105.42 TC 40 995 6 250
1962 SI WA 05:00:00 TS -17.92 105.72 995 bom 976 970 P_____O__PP_P_ SH141962 -19.17 110.70 -1 -17.80 105.30 995 -19.17 110.70 TC -18.85 110.60 2 -18.20 105.59 TC 40 995 5 231
1962 SI WA 06:00:00 TS -17.99 105.66 970 970 P_____P__PP_O_ SH141962 -19.18 110.64 -1 -17.90 105.19 995 -19.18 110.64 TC -18.82 110.51 2 -18.30 105.70 TC 40 995 5 221
1962 SI WA 07:00:00 TS -18.05 105.60 995 bom 973 967 P_____O__PP_P_ SH141962 -19.19 110.59 -1 -18.00 105.10 995 -19.19 110.59 TC -18.80 110.42 2 -18.38 105.80 TC 39 995 4 204
1962 SI WA 09:00:00 TS -18.18 105.56 967 961 P_____P__PP_P_ SH141962 -19.21 110.48 -1 -18.18 105.07 -19.21 110.48 TC -18.75 110.22 2 -18.55 106.04 TC 37 995 4 185
1962 SI WA 11:00:00 TS -18.31 105.60 961 956 P_____P__PP_P_ SH141962 -19.22 110.36 -1 -18.34 105.20 -19.22 110.36 TC -18.71 110.02 2 -18.72 106.29 TC 35 995 4 161
1962 SI WA 12:00:00 TS -18.37 105.64 956 926 P_____P__PP_O_ SH141962 -19.23 110.29 -1 -18.41 105.32 -19.23 110.29 TC -18.69 109.92 2 -18.80 106.40 TC 35 996 5 141
1962 SI WA 15:00:00 TS -18.58 105.84 926 888 P_____P__PP_P_ SH141962 -19.23 110.07 -1 -18.63 105.78 -19.23 110.07 TC -18.62 109.60 2 -19.04 106.63 TC 35 996 6 136
1962 SI WA 18:00:00 TS -18.83 106.10 888 858 P_____P__PP_O_ SH141962 -19.20 109.79 -1 -18.84 106.30 -19.20 109.79 TC -18.56 109.27 2 -19.30 106.80 TC 35 997 7 135
1962 SI WA 20:00:00 TS -19.02 106.29 997 bom 858 844 P_____O__PP_P_ SH141962 -19.15 109.56 -1 -19.00 106.60 997 -19.15 109.56 TC -18.52 109.04 2 -19.52 106.93 TC 35 997 8 140
1962 SI WA 21:00:00 TS -19.12 106.36 844 824 P_____P__PP_P_ SH141962 -19.13 109.44 -1 -19.10 106.68 997 -19.13 109.44 TC -18.50 108.92 2 -19.63 106.99 TC 35 997 8 146
1962 SI WA 23:00:00 TS -19.33 106.51 824 778 P_____P__PP_P_ SH141962 -19.05 109.16 -1 -19.32 106.82 997 -19.05 109.16 TC -18.46 108.67 2 -19.83 107.08 TC 35 997 14 108
1962 SI WA 1962-02-20 00:00:00 TS -19.34 107.06 769 736 O_____P__OP_O_ jtwc_sh SH141962 -19.00 109.00 -1 -19.43 106.88 997 -19.00 109.00 TC -18.44 108.55 2 -19.90 107.10 TC 35 997 12 95
1962 SI WA 03:00:00 TS -19.39 107.33 745 745 P_____P__PP_P_ SH141962 -18.81 108.46 -1 -19.76 107.02 997 -18.81 108.46 TC -18.37 108.16 2 -20.01 107.10 TC 35 997 2 85
1962 SI WA 06:00:00 TS -19.32 107.32 750 750 O_____P__OP_O_ jtwc_sh SH141962 -18.60 107.90 -1 -20.03 107.09 997 -18.60 107.90 TC -18.31 107.74 2 -20.00 107.00 TC 35 997 3 0
1962 SI WA 07:00:00 TS -19.21 107.31 998 bom 756 756 P_____O__PP_P_ SH141962 -18.53 107.71 -1 -20.10 107.10 998 -18.53 107.71 TC -18.29 107.60 2 -19.98 106.96 TC 35 996 4 311
1962 SI WA 09:00:00 TS -19.17 107.15 774 774 P_____P__PP_P_ SH141962 -18.39 107.34 -1 -20.17 107.11 -18.39 107.34 TC -18.25 107.31 2 -19.92 106.86 TC 37 996 5 287
1962 SI WA 11:00:00 TS -19.12 106.97 789 789 P_____P__PO_P_ SH141962 -18.26 106.98 -1 -20.19 107.09 -18.26 106.98 TC -18.20 107.00 1 -19.84 106.75 TC 39 995 5 288
1962 SI WA 12:00:00 TS -19.09 106.87 798 798 O_____P__OP_O_ jtwc_sh SH141962 -18.20 106.80 -1 -20.19 107.07 -18.20 106.80 TC -18.15 106.78 1 -19.80 106.70 TC 40 995 6 290
1962 SI WA 15:00:00 TS -18.98 106.56 831 831 P_____P__PP_P_ SH141962 -18.02 106.28 -1 -20.12 106.97 -18.02 106.28 TC -18.02 106.10 1 -19.70 106.60 TC 40 994 6 290
1962 SI WA 18:00:00 TS -18.88 106.25 873 873 O_____P__OP_O_ jtwc_sh SH141962 -17.90 105.80 -1 -19.99 106.83 -17.90 105.80 TC -17.92 105.51 1 -19.60 106.50 TC 40 994 6 287
1962 SI WA 21:00:00 TS -18.79 105.90 906 906 P_____P__PP_P_ SH141962 -17.84 105.19 -1 -19.82 106.65 -17.84 105.19 TC -17.88 105.11 1 -19.49 106.36 TC 40 993 6 284
1962 SI WA 23:00:00 TS -18.76 105.74 924 924 P_____P__PO_P_ SH141962 -17.86 104.93 -1 -19.70 106.52 -17.86 104.93 TC -17.90 105.00 1 -19.42 106.25 TC 40 993 4 280
1962 SI WA 1962-02-21 00:00:00 TS -18.76 105.71 924 915 O_____P__OP_O_ jtwc_sh SH141962 -17.90 104.90 -1 -19.64 106.46 -17.90 104.90 TC -17.94 105.05 1 -19.40 106.20 TC 40 993 1 120
1962 SI WA 03:00:00 TS -18.81 105.83 915 891 P_____P__PP_P_ SH141962 -18.12 105.33 -1 -19.47 106.26 -18.12 105.33 TC -18.14 105.43 1 -19.37 106.04 TC 40 993 4 114
1962 SI WA 06:00:00 TS -18.90 106.06 882 882 O_____P__OP_O_ jtwc_sh SH141962 -18.40 106.00 -1 -19.33 106.06 -18.40 106.00 TC -18.40 106.00 1 -19.40 105.90 TC 40 993 5 115
1962 SI WA 07:00:00 TS -18.93 106.12 993 bom 882 867 P_____O__PP_P_ SH141962 -18.48 106.17 -1 -19.30 106.00 993 4 -18.48 106.17 TC -18.48 106.19 1 -19.42 105.86 TC 40 993 4 123
1962 SI WA 09:00:00 TS -19.00 106.22 867 853 P_____P__PP_P_ SH141962 -18.62 106.45 -1 -19.25 105.88 -18.62 106.45 TC -18.65 106.54 1 -19.48 105.80 TC 40 994 3 132
1962 SI WA 11:00:00 TS -19.07 106.28 853 853 P_____P__PO_P_ SH141962 -18.75 106.65 -1 -19.24 105.78 -18.75 106.65 TC -18.80 106.80 1 -19.56 105.74 TC 40 994 2 148
1962 SI WA 12:00:00 TS -19.10 106.28 853 853 O_____P__OP_O_ jtwc_sh SH141962 -18.80 106.70 -1 -19.24 105.72 -18.80 106.70 TC -18.84 106.83 1 -19.60 105.70 TC 40 995 2 225
1962 SI WA 15:00:00 TS -19.17 106.17 857 857 P_____P__PP_P_ SH141962 -18.92 106.63 -1 -19.27 105.58 -18.92 106.63 TC -18.95 106.77 1 -19.71 105.55 TC 37 995 3 242
1962 SI WA 18:00:00 TS -19.24 105.98 875 870 O_____P__OP_O_ jtwc_sh SH141962 -19.00 106.40 -1 -19.35 105.46 -19.00 106.40 TC -19.01 106.56 1 -19.80 105.40 TC 35 996 3 251
1962 SI WA 21:00:00 TS -19.28 105.83 889 889 P_____P__PP_P_ SH141962 -19.05 106.20 -1 -19.46 105.34 -19.05 106.20 TC -19.07 106.28 1 -19.86 105.29 TC 35 996 3 255
1962 SI WA 23:00:00 TS -19.30 105.74 899 899 P_____P__PO_P_ SH141962 -19.08 106.06 -1 -19.56 105.27 -19.08 106.06 TC -19.10 106.10 1 -19.89 105.23 TC 35 996 2 259
1962 SI WA 1962-02-22 00:00:00 TS -19.30 105.71 899 899 O_____P__OP_O_ jtwc_sh SH141962 -19.10 106.00 -1 -19.61 105.23 -19.10 106.00 TC -19.12 106.04 1 -19.90 105.20 TC 35 997 2 242
1962 SI WA 03:00:00 TS -19.36 105.62 903 903 P_____P__PP___ SH141962 -19.20 105.85 -1 -19.77 105.13 -19.20 105.85 TC -19.18 105.85 1 TC 2 233
1962 SI WA 06:00:00 TS -19.45 105.51 913 913 O_____P__OP___ jtwc_sh SH141962 -19.30 105.70 -1 -19.94 105.03 -19.30 105.70 TC -19.25 105.67 1 2 237
1962 SI WA 07:00:00 TS -19.45 105.48 998 bom 913 913 P_____O__PP___ SH141962 -19.32 105.63 -1 -20.00 105.00 998 -19.32 105.63 TC -19.28 105.61 1 2 275
1962 SI WA 09:00:00 TS -19.44 105.42 923 918 P________PP___ SH141962 -19.34 105.49 -1 -19.34 105.49 TC -19.33 105.50 1 2 264
1962 SI WA 11:00:00 TS -19.46 105.32 928 928 P________PO___ SH141962 -19.37 105.36 -1 -19.37 105.36 TC -19.40 105.40 1 2 257
1962 SI WA 12:00:00 TS -19.47 105.29 928 928 O________OP___ jtwc_sh SH141962 -19.40 105.30 -1 -19.40 105.30 TC -19.44 105.35 1 2 233
1962 SI WA 15:00:00 TS -19.55 105.21 937 929 P________PP___ SH141962 -19.53 105.18 -1 -19.53 105.18 TC -19.57 105.24 1 3 213
1962 SI WA 18:00:00 TS -19.71 105.12 938 930 O________OP___ jtwc_sh SH141962 -19.70 105.10 -1 -19.70 105.10 TC -19.72 105.14 1 4 203
1962 SI WA 21:00:00 NR -19.89 105.05 930 930 __________P___ SH141962 -1 TC -19.89 105.05 1 4 202
1962 SI WA 23:00:00 NR -20.00 105.00 936 __________O___ SH141962 -1 TC -20.00 105.00 1 4 205